sensor_id;sensor_type;location;lat;lon;timestamp;P1;durP1;ratioP1;P2;durP2;ratioP2
4903;SDS011;2467;48.142;11.616;2022-12-13T00:00:19;11.43;;;9.13;;
4903;SDS011;2467;48.142;11.616;2022-12-13T00:00:51;10.27;;;9.07;;
4903;SDS011;2467;48.142;11.616;2022-12-13T00:01:24;11.75;;;8.52;;
4903;SDS011;2467;48.142;11.616;2022-12-13T00:01:57;12.27;;;9.10;;
4903;SDS011;2467;48.142;11.616;2022-12-13T00:02:30;10.50;;;9.15;;
4903;SDS011;2467;48.142;11.616;2022-12-13T00:03:02;11.18;;;9.00;;
4903;SDS011;2467;48.142;11.616;2022-12-13T00:03:34;10.60;;;8.90;;
4903;SDS011;2467;48.142;11.616;2022-12-13T00:04:07;13.02;;;9.13;;
4903;SDS011;2467;48.142;11.616;2022-12-13T00:04:40;11.95;;;9.52;;
4903;SDS011;2467;48.142;11.616;2022-12-13T00:05:13;11.15;;;8.45;;
4903;SDS011;2467;48.142;11.616;2022-12-13T00:05:45;14.07;;;9.68;;
4903;SDS011;2467;48.142;11.616;2022-12-13T00:06:17;11.85;;;9.27;;
4903;SDS011;2467;48.142;11.616;2022-12-13T00:06:50;9.90;;;8.55;;
4903;SDS011;2467;48.142;11.616;2022-12-13T00:07:25;11.50;;;8.93;;
4903;SDS011;2467;48.142;11.616;2022-12-13T00:07:58;14.45;;;10.07;;
4903;SDS011;2467;48.142;11.616;2022-12-13T00:08:31;9.52;;;8.52;;
4903;SDS011;2467;48.142;11.616;2022-12-13T00:09:03;12.02;;;9.52;;
4903;SDS011;2467;48.142;11.616;2022-12-13T00:09:38;11.93;;;10.68;;
4903;SDS011;2467;48.142;11.616;2022-12-13T00:10:12;9.20;;;7.88;;
4903;SDS011;2467;48.142;11.616;2022-12-13T00:10:44;11.40;;;9.02;;
4903;SDS011;2467;48.142;11.616;2022-12-13T00:11:17;11.05;;;8.55;;
4903;SDS011;2467;48.142;11.616;2022-12-13T00:11:48;11.80;;;9.43;;
4903;SDS011;2467;48.142;11.616;2022-12-13T00:12:22;12.20;;;9.25;;
4903;SDS011;2467;48.142;11.616;2022-12-13T00:12:54;10.70;;;8.65;;
4903;SDS011;2467;48.142;11.616;2022-12-13T00:13:26;12.48;;;9.73;;
4903;SDS011;2467;48.142;11.616;2022-12-13T00:13:59;10.32;;;8.93;;
4903;SDS011;2467;48.142;11.616;2022-12-13T00:14:31;12.85;;;9.70;;
4903;SDS011;2467;48.142;11.616;2022-12-13T00:15:05;10.02;;;8.77;;
4903;SDS011;2467;48.142;11.616;2022-12-13T00:15:37;10.23;;;8.20;;
4903;SDS011;2467;48.142;11.616;2022-12-13T00:16:11;10.55;;;8.27;;
4903;SDS011;2467;48.142;11.616;2022-12-13T00:16:45;10.52;;;8.35;;
4903;SDS011;2467;48.142;11.616;2022-12-13T00:17:18;11.02;;;9.77;;
4903;SDS011;2467;48.142;11.616;2022-12-13T00:17:51;13.93;;;9.63;;
4903;SDS011;2467;48.142;11.616;2022-12-13T00:18:23;11.88;;;10.57;;
4903;SDS011;2467;48.142;11.616;2022-12-13T00:18:55;13.32;;;8.77;;
4903;SDS011;2467;48.142;11.616;2022-12-13T00:19:30;12.38;;;9.25;;
4903;SDS011;2467;48.142;11.616;2022-12-13T00:20:02;10.02;;;8.98;;
4903;SDS011;2467;48.142;11.616;2022-12-13T00:20:38;10.02;;;8.50;;
4903;SDS011;2467;48.142;11.616;2022-12-13T00:21:11;11.63;;;9.13;;
4903;SDS011;2467;48.142;11.616;2022-12-13T00:21:44;10.65;;;9.40;;
4903;SDS011;2467;48.142;11.616;2022-12-13T00:22:18;11.77;;;9.63;;
4903;SDS011;2467;48.142;11.616;2022-12-13T00:22:51;13.27;;;10.18;;
4903;SDS011;2467;48.142;11.616;2022-12-13T00:23:24;10.30;;;9.25;;
4903;SDS011;2467;48.142;11.616;2022-12-13T00:23:56;10.57;;;9.02;;
4903;SDS011;2467;48.142;11.616;2022-12-13T00:24:29;11.88;;;8.90;;
4903;SDS011;2467;48.142;11.616;2022-12-13T00:25:02;11.85;;;9.15;;
4903;SDS011;2467;48.142;11.616;2022-12-13T00:25:34;11.80;;;9.05;;
4903;SDS011;2467;48.142;11.616;2022-12-13T00:26:08;11.32;;;9.23;;
4903;SDS011;2467;48.142;11.616;2022-12-13T00:26:42;11.88;;;9.77;;
4903;SDS011;2467;48.142;11.616;2022-12-13T00:27:14;14.25;;;9.68;;
4903;SDS011;2467;48.142;11.616;2022-12-13T00:27:47;9.40;;;8.40;;
4903;SDS011;2467;48.142;11.616;2022-12-13T00:28:19;12.18;;;8.77;;
4903;SDS011;2467;48.142;11.616;2022-12-13T00:28:51;12.40;;;8.95;;
4903;SDS011;2467;48.142;11.616;2022-12-13T00:29:24;12.10;;;9.55;;
4903;SDS011;2467;48.142;11.616;2022-12-13T00:29:56;10.05;;;8.18;;
4903;SDS011;2467;48.142;11.616;2022-12-13T00:30:29;10.10;;;9.05;;
4903;SDS011;2467;48.142;11.616;2022-12-13T00:31:02;12.48;;;9.00;;
4903;SDS011;2467;48.142;11.616;2022-12-13T00:31:54;13.15;;;9.15;;
4903;SDS011;2467;48.142;11.616;2022-12-13T00:32:31;11.30;;;9.07;;
4903;SDS011;2467;48.142;11.616;2022-12-13T00:33:03;9.88;;;8.88;;
4903;SDS011;2467;48.142;11.616;2022-12-13T00:33:35;11.48;;;8.98;;
4903;SDS011;2467;48.142;11.616;2022-12-13T00:34:09;10.38;;;9.07;;
4903;SDS011;2467;48.142;11.616;2022-12-13T00:34:41;17.98;;;9.80;;
4903;SDS011;2467;48.142;11.616;2022-12-13T00:35:14;14.43;;;10.40;;
4903;SDS011;2467;48.142;11.616;2022-12-13T00:35:46;9.82;;;8.52;;
4903;SDS011;2467;48.142;11.616;2022-12-13T00:36:18;12.05;;;8.90;;
4903;SDS011;2467;48.142;11.616;2022-12-13T00:36:51;11.63;;;10.40;;
4903;SDS011;2467;48.142;11.616;2022-12-13T00:37:23;12.10;;;10.80;;
4903;SDS011;2467;48.142;11.616;2022-12-13T00:37:58;11.32;;;10.23;;
4903;SDS011;2467;48.142;11.616;2022-12-13T00:38:30;11.63;;;8.95;;
4903;SDS011;2467;48.142;11.616;2022-12-13T00:39:02;14.15;;;10.07;;
4903;SDS011;2467;48.142;11.616;2022-12-13T00:39:35;12.50;;;9.35;;
4903;SDS011;2467;48.142;11.616;2022-12-13T00:40:07;13.02;;;10.25;;
4903;SDS011;2467;48.142;11.616;2022-12-13T00:40:41;9.82;;;8.82;;
4903;SDS011;2467;48.142;11.616;2022-12-13T00:41:13;10.73;;;9.25;;
4903;SDS011;2467;48.142;11.616;2022-12-13T00:41:47;10.77;;;9.65;;
4903;SDS011;2467;48.142;11.616;2022-12-13T00:42:19;11.18;;;9.95;;
4903;SDS011;2467;48.142;11.616;2022-12-13T00:42:51;12.07;;;10.05;;
4903;SDS011;2467;48.142;11.616;2022-12-13T00:43:24;10.93;;;9.85;;
4903;SDS011;2467;48.142;11.616;2022-12-13T00:43:56;12.45;;;10.15;;
4903;SDS011;2467;48.142;11.616;2022-12-13T00:44:29;11.30;;;10.20;;
4903;SDS011;2467;48.142;11.616;2022-12-13T00:45:02;10.50;;;9.43;;
4903;SDS011;2467;48.142;11.616;2022-12-13T00:45:34;11.77;;;10.50;;
4903;SDS011;2467;48.142;11.616;2022-12-13T00:46:10;12.80;;;10.75;;
4903;SDS011;2467;48.142;11.616;2022-12-13T00:46:45;12.80;;;10.90;;
4903;SDS011;2467;48.142;11.616;2022-12-13T00:47:17;18.02;;;11.45;;
4903;SDS011;2467;48.142;11.616;2022-12-13T00:47:52;14.35;;;11.00;;
4903;SDS011;2467;48.142;11.616;2022-12-13T00:48:24;15.85;;;9.80;;
4903;SDS011;2467;48.142;11.616;2022-12-13T00:48:56;13.00;;;11.63;;
4903;SDS011;2467;48.142;11.616;2022-12-13T00:49:31;16.75;;;11.35;;
4903;SDS011;2467;48.142;11.616;2022-12-13T00:50:03;14.02;;;10.55;;
4903;SDS011;2467;48.142;11.616;2022-12-13T00:50:36;11.95;;;10.52;;
4903;SDS011;2467;48.142;11.616;2022-12-13T00:51:09;12.23;;;10.93;;
4903;SDS011;2467;48.142;11.616;2022-12-13T00:51:42;12.40;;;10.68;;
4903;SDS011;2467;48.142;11.616;2022-12-13T00:52:14;12.32;;;10.68;;
4903;SDS011;2467;48.142;11.616;2022-12-13T00:52:46;11.18;;;10.00;;
4903;SDS011;2467;48.142;11.616;2022-12-13T00:53:19;12.07;;;9.93;;
4903;SDS011;2467;48.142;11.616;2022-12-13T00:53:51;12.70;;;11.38;;
4903;SDS011;2467;48.142;11.616;2022-12-13T00:54:24;11.25;;;9.73;;
4903;SDS011;2467;48.142;11.616;2022-12-13T00:54:56;13.10;;;10.95;;
4903;SDS011;2467;48.142;11.616;2022-12-13T00:55:29;13.88;;;10.05;;
4903;SDS011;2467;48.142;11.616;2022-12-13T00:56:01;12.68;;;10.18;;
4903;SDS011;2467;48.142;11.616;2022-12-13T00:56:33;10.90;;;9.63;;
4903;SDS011;2467;48.142;11.616;2022-12-13T00:57:08;11.40;;;9.52;;
4903;SDS011;2467;48.142;11.616;2022-12-13T00:57:40;11.25;;;10.05;;
4903;SDS011;2467;48.142;11.616;2022-12-13T00:58:12;13.23;;;10.80;;
4903;SDS011;2467;48.142;11.616;2022-12-13T00:58:44;11.35;;;10.15;;
4903;SDS011;2467;48.142;11.616;2022-12-13T00:59:22;11.05;;;9.50;;
4903;SDS011;2467;48.142;11.616;2022-12-13T00:59:54;14.60;;;11.68;;
4903;SDS011;2467;48.142;11.616;2022-12-13T01:00:27;12.15;;;10.07;;
4903;SDS011;2467;48.142;11.616;2022-12-13T01:01:02;15.38;;;10.98;;
4903;SDS011;2467;48.142;11.616;2022-12-13T01:01:35;11.93;;;10.13;;
4903;SDS011;2467;48.142;11.616;2022-12-13T01:02:08;12.35;;;10.55;;
4903;SDS011;2467;48.142;11.616;2022-12-13T01:02:39;12.98;;;10.52;;
4903;SDS011;2467;48.142;11.616;2022-12-13T01:03:13;13.43;;;10.40;;
4903;SDS011;2467;48.142;11.616;2022-12-13T01:03:51;14.07;;;10.82;;
4903;SDS011;2467;48.142;11.616;2022-12-13T01:04:25;15.63;;;9.55;;
4903;SDS011;2467;48.142;11.616;2022-12-13T01:04:57;13.57;;;10.45;;
4903;SDS011;2467;48.142;11.616;2022-12-13T01:05:29;12.52;;;9.73;;
4903;SDS011;2467;48.142;11.616;2022-12-13T01:06:22;13.40;;;10.30;;
4903;SDS011;2467;48.142;11.616;2022-12-13T01:06:59;11.05;;;9.75;;
4903;SDS011;2467;48.142;11.616;2022-12-13T01:07:32;13.38;;;10.73;;
4903;SDS011;2467;48.142;11.616;2022-12-13T01:08:04;13.98;;;12.40;;
4903;SDS011;2467;48.142;11.616;2022-12-13T01:08:37;19.63;;;11.52;;
4903;SDS011;2467;48.142;11.616;2022-12-13T01:09:13;15.25;;;10.45;;
4903;SDS011;2467;48.142;11.616;2022-12-13T01:09:47;11.55;;;10.35;;
4903;SDS011;2467;48.142;11.616;2022-12-13T01:10:20;10.98;;;9.88;;
4903;SDS011;2467;48.142;11.616;2022-12-13T01:10:52;14.10;;;11.30;;
4903;SDS011;2467;48.142;11.616;2022-12-13T01:11:24;14.65;;;10.70;;
4903;SDS011;2467;48.142;11.616;2022-12-13T01:11:57;12.85;;;10.32;;
4903;SDS011;2467;48.142;11.616;2022-12-13T01:12:31;15.77;;;10.90;;
4903;SDS011;2467;48.142;11.616;2022-12-13T01:13:04;11.48;;;10.30;;
4903;SDS011;2467;48.142;11.616;2022-12-13T01:13:36;13.85;;;10.35;;
4903;SDS011;2467;48.142;11.616;2022-12-13T01:14:08;11.65;;;10.05;;
4903;SDS011;2467;48.142;11.616;2022-12-13T01:14:41;12.95;;;10.05;;
4903;SDS011;2467;48.142;11.616;2022-12-13T01:15:13;12.63;;;11.27;;
4903;SDS011;2467;48.142;11.616;2022-12-13T01:15:46;10.80;;;9.35;;
4903;SDS011;2467;48.142;11.616;2022-12-13T01:16:18;14.07;;;10.15;;
4903;SDS011;2467;48.142;11.616;2022-12-13T01:16:50;17.33;;;12.32;;
4903;SDS011;2467;48.142;11.616;2022-12-13T01:17:25;11.73;;;10.07;;
4903;SDS011;2467;48.142;11.616;2022-12-13T01:17:58;13.43;;;10.85;;
4903;SDS011;2467;48.142;11.616;2022-12-13T01:18:29;10.38;;;9.38;;
4903;SDS011;2467;48.142;11.616;2022-12-13T01:19:03;14.73;;;11.15;;
4903;SDS011;2467;48.142;11.616;2022-12-13T01:19:35;11.52;;;9.35;;
4903;SDS011;2467;48.142;11.616;2022-12-13T01:20:07;13.48;;;10.38;;
4903;SDS011;2467;48.142;11.616;2022-12-13T01:20:41;12.32;;;9.98;;
4903;SDS011;2467;48.142;11.616;2022-12-13T01:21:14;13.10;;;9.55;;
4903;SDS011;2467;48.142;11.616;2022-12-13T01:21:47;11.00;;;8.75;;
4903;SDS011;2467;48.142;11.616;2022-12-13T01:22:19;11.75;;;9.70;;
4903;SDS011;2467;48.142;11.616;2022-12-13T01:22:51;11.25;;;9.02;;
4903;SDS011;2467;48.142;11.616;2022-12-13T01:23:23;10.82;;;9.35;;
4903;SDS011;2467;48.142;11.616;2022-12-13T01:24:00;17.23;;;10.77;;
4903;SDS011;2467;48.142;11.616;2022-12-13T01:24:33;15.65;;;11.07;;
4903;SDS011;2467;48.142;11.616;2022-12-13T01:25:06;14.65;;;10.43;;
4903;SDS011;2467;48.142;11.616;2022-12-13T01:25:38;11.02;;;9.93;;
4903;SDS011;2467;48.142;11.616;2022-12-13T01:26:11;12.07;;;9.05;;
4903;SDS011;2467;48.142;11.616;2022-12-13T01:26:47;12.43;;;9.63;;
4903;SDS011;2467;48.142;11.616;2022-12-13T01:27:19;11.70;;;9.77;;
4903;SDS011;2467;48.142;11.616;2022-12-13T01:27:52;11.70;;;9.60;;
4903;SDS011;2467;48.142;11.616;2022-12-13T01:28:24;11.35;;;10.20;;
4903;SDS011;2467;48.142;11.616;2022-12-13T01:28:56;14.85;;;10.25;;
4903;SDS011;2467;48.142;11.616;2022-12-13T01:29:29;12.57;;;9.25;;
4903;SDS011;2467;48.142;11.616;2022-12-13T01:30:01;13.50;;;9.55;;
4903;SDS011;2467;48.142;11.616;2022-12-13T01:30:34;13.48;;;9.80;;
4903;SDS011;2467;48.142;11.616;2022-12-13T01:31:07;13.80;;;10.85;;
4903;SDS011;2467;48.142;11.616;2022-12-13T01:31:40;12.27;;;10.43;;
4903;SDS011;2467;48.142;11.616;2022-12-13T01:32:13;13.02;;;9.88;;
4903;SDS011;2467;48.142;11.616;2022-12-13T01:32:45;12.43;;;9.18;;
4903;SDS011;2467;48.142;11.616;2022-12-13T01:33:17;16.45;;;11.15;;
4903;SDS011;2467;48.142;11.616;2022-12-13T01:33:49;12.07;;;10.60;;
4903;SDS011;2467;48.142;11.616;2022-12-13T01:34:22;13.65;;;10.80;;
4903;SDS011;2467;48.142;11.616;2022-12-13T01:34:57;11.80;;;9.80;;
4903;SDS011;2467;48.142;11.616;2022-12-13T01:35:32;11.50;;;10.10;;
4903;SDS011;2467;48.142;11.616;2022-12-13T01:36:05;14.70;;;10.70;;
4903;SDS011;2467;48.142;11.616;2022-12-13T01:36:40;12.35;;;10.25;;
4903;SDS011;2467;48.142;11.616;2022-12-13T01:37:14;12.55;;;9.48;;
4903;SDS011;2467;48.142;11.616;2022-12-13T01:37:47;13.02;;;10.25;;
4903;SDS011;2467;48.142;11.616;2022-12-13T01:38:19;14.45;;;10.15;;
4903;SDS011;2467;48.142;11.616;2022-12-13T01:38:56;11.85;;;10.38;;
4903;SDS011;2467;48.142;11.616;2022-12-13T01:39:31;13.30;;;10.10;;
4903;SDS011;2467;48.142;11.616;2022-12-13T01:40:09;13.82;;;10.63;;
4903;SDS011;2467;48.142;11.616;2022-12-13T01:40:47;11.30;;;9.38;;
4903;SDS011;2467;48.142;11.616;2022-12-13T01:41:21;11.43;;;9.65;;
4903;SDS011;2467;48.142;11.616;2022-12-13T01:41:57;11.88;;;9.27;;
4903;SDS011;2467;48.142;11.616;2022-12-13T01:42:32;10.95;;;9.85;;
4903;SDS011;2467;48.142;11.616;2022-12-13T01:43:07;11.45;;;9.40;;
4903;SDS011;2467;48.142;11.616;2022-12-13T01:43:55;13.40;;;9.57;;
4903;SDS011;2467;48.142;11.616;2022-12-13T01:45:28;10.05;;;9.05;;
4903;SDS011;2467;48.142;11.616;2022-12-13T01:46:00;11.95;;;8.88;;
4903;SDS011;2467;48.142;11.616;2022-12-13T01:46:33;13.70;;;10.77;;
4903;SDS011;2467;48.142;11.616;2022-12-13T01:47:07;12.43;;;10.55;;
4903;SDS011;2467;48.142;11.616;2022-12-13T01:47:39;12.48;;;10.38;;
4903;SDS011;2467;48.142;11.616;2022-12-13T01:48:16;10.63;;;9.52;;
4903;SDS011;2467;48.142;11.616;2022-12-13T01:48:56;12.60;;;9.90;;
4903;SDS011;2467;48.142;11.616;2022-12-13T01:49:31;10.27;;;8.90;;
4903;SDS011;2467;48.142;11.616;2022-12-13T01:50:04;13.82;;;9.55;;
4903;SDS011;2467;48.142;11.616;2022-12-13T01:50:41;13.27;;;10.13;;
4903;SDS011;2467;48.142;11.616;2022-12-13T01:51:18;12.10;;;9.20;;
4903;SDS011;2467;48.142;11.616;2022-12-13T01:51:55;10.45;;;9.38;;
4903;SDS011;2467;48.142;11.616;2022-12-13T01:52:34;12.15;;;8.75;;
4903;SDS011;2467;48.142;11.616;2022-12-13T01:53:07;10.63;;;8.70;;
4903;SDS011;2467;48.142;11.616;2022-12-13T01:53:42;11.55;;;8.88;;
4903;SDS011;2467;48.142;11.616;2022-12-13T01:54:18;11.68;;;9.80;;
4903;SDS011;2467;48.142;11.616;2022-12-13T01:55:05;10.90;;;8.98;;
4903;SDS011;2467;48.142;11.616;2022-12-13T01:55:39;13.88;;;10.25;;
4903;SDS011;2467;48.142;11.616;2022-12-13T01:56:14;14.27;;;10.40;;
4903;SDS011;2467;48.142;11.616;2022-12-13T01:56:52;11.60;;;9.75;;
4903;SDS011;2467;48.142;11.616;2022-12-13T01:57:31;11.57;;;9.15;;
4903;SDS011;2467;48.142;11.616;2022-12-13T01:58:05;11.27;;;9.68;;
4903;SDS011;2467;48.142;11.616;2022-12-13T01:58:38;12.90;;;10.18;;
4903;SDS011;2467;48.142;11.616;2022-12-13T01:59:10;10.88;;;8.95;;
4903;SDS011;2467;48.142;11.616;2022-12-13T01:59:45;15.43;;;9.70;;
4903;SDS011;2467;48.142;11.616;2022-12-13T02:00:19;11.18;;;9.90;;
4903;SDS011;2467;48.142;11.616;2022-12-13T02:00:51;12.70;;;9.40;;
4903;SDS011;2467;48.142;11.616;2022-12-13T02:01:24;10.25;;;8.65;;
4903;SDS011;2467;48.142;11.616;2022-12-13T02:01:56;13.13;;;9.98;;
4903;SDS011;2467;48.142;11.616;2022-12-13T02:02:31;12.13;;;9.07;;
4903;SDS011;2467;48.142;11.616;2022-12-13T02:03:04;12.57;;;9.90;;
4903;SDS011;2467;48.142;11.616;2022-12-13T02:03:36;15.75;;;10.57;;
4903;SDS011;2467;48.142;11.616;2022-12-13T02:04:08;16.38;;;12.18;;
4903;SDS011;2467;48.142;11.616;2022-12-13T02:04:43;12.70;;;10.05;;
4903;SDS011;2467;48.142;11.616;2022-12-13T02:05:21;12.07;;;9.15;;
4903;SDS011;2467;48.142;11.616;2022-12-13T02:05:58;12.38;;;9.63;;
4903;SDS011;2467;48.142;11.616;2022-12-13T02:06:35;14.65;;;11.63;;
4903;SDS011;2467;48.142;11.616;2022-12-13T02:07:08;11.13;;;9.20;;
4903;SDS011;2467;48.142;11.616;2022-12-13T02:07:42;11.57;;;9.35;;
4903;SDS011;2467;48.142;11.616;2022-12-13T02:08:16;12.23;;;9.82;;
4903;SDS011;2467;48.142;11.616;2022-12-13T02:08:49;13.30;;;9.45;;
4903;SDS011;2467;48.142;11.616;2022-12-13T02:09:21;10.18;;;9.10;;
4903;SDS011;2467;48.142;11.616;2022-12-13T02:09:55;11.88;;;10.38;;
4903;SDS011;2467;48.142;11.616;2022-12-13T02:10:31;11.38;;;9.57;;
4903;SDS011;2467;48.142;11.616;2022-12-13T02:11:04;14.85;;;11.50;;
4903;SDS011;2467;48.142;11.616;2022-12-13T02:11:38;15.05;;;10.40;;
4903;SDS011;2467;48.142;11.616;2022-12-13T02:12:12;13.27;;;9.80;;
4903;SDS011;2467;48.142;11.616;2022-12-13T02:12:44;12.75;;;9.50;;
4903;SDS011;2467;48.142;11.616;2022-12-13T02:13:16;15.23;;;11.05;;
4903;SDS011;2467;48.142;11.616;2022-12-13T02:13:49;16.92;;;11.30;;
4903;SDS011;2467;48.142;11.616;2022-12-13T02:14:21;12.18;;;10.75;;
4903;SDS011;2467;48.142;11.616;2022-12-13T02:14:53;9.90;;;8.90;;
4903;SDS011;2467;48.142;11.616;2022-12-13T02:15:33;14.18;;;10.35;;
4903;SDS011;2467;48.142;11.616;2022-12-13T02:16:11;10.25;;;8.95;;
4903;SDS011;2467;48.142;11.616;2022-12-13T02:16:54;13.63;;;9.32;;
4903;SDS011;2467;48.142;11.616;2022-12-13T02:17:36;10.15;;;8.90;;
4903;SDS011;2467;48.142;11.616;2022-12-13T02:18:24;11.50;;;9.57;;
4903;SDS011;2467;48.142;11.616;2022-12-13T02:21:43;13.95;;;9.50;;
4903;SDS011;2467;48.142;11.616;2022-12-13T02:22:32;10.40;;;9.30;;
4903;SDS011;2467;48.142;11.616;2022-12-13T02:23:29;11.20;;;8.70;;
4903;SDS011;2467;48.142;11.616;2022-12-13T02:24:20;10.27;;;8.98;;
4903;SDS011;2467;48.142;11.616;2022-12-13T02:25:16;14.00;;;10.43;;
4903;SDS011;2467;48.142;11.616;2022-12-13T02:26:09;11.32;;;9.02;;
4903;SDS011;2467;48.142;11.616;2022-12-13T02:27:09;11.63;;;9.10;;
4903;SDS011;2467;48.142;11.616;2022-12-13T02:27:50;12.68;;;10.00;;
4903;SDS011;2467;48.142;11.616;2022-12-13T02:29:01;11.88;;;9.43;;
4903;SDS011;2467;48.142;11.616;2022-12-13T02:30:58;12.65;;;9.43;;
4903;SDS011;2467;48.142;11.616;2022-12-13T02:31:38;9.88;;;8.70;;
4903;SDS011;2467;48.142;11.616;2022-12-13T02:32:20;11.68;;;9.25;;
4903;SDS011;2467;48.142;11.616;2022-12-13T02:33:06;13.48;;;10.73;;
4903;SDS011;2467;48.142;11.616;2022-12-13T02:34:00;13.10;;;10.60;;
4903;SDS011;2467;48.142;11.616;2022-12-13T02:34:36;12.98;;;10.75;;
4903;SDS011;2467;48.142;11.616;2022-12-13T02:35:10;11.85;;;10.35;;
4903;SDS011;2467;48.142;11.616;2022-12-13T02:35:50;12.90;;;11.15;;
4903;SDS011;2467;48.142;11.616;2022-12-13T02:36:36;14.98;;;11.10;;
4903;SDS011;2467;48.142;11.616;2022-12-13T02:37:15;13.10;;;11.15;;
4903;SDS011;2467;48.142;11.616;2022-12-13T02:37:56;13.85;;;10.80;;
4903;SDS011;2467;48.142;11.616;2022-12-13T02:38:33;12.82;;;10.43;;
4903;SDS011;2467;48.142;11.616;2022-12-13T02:39:13;14.40;;;9.32;;
4903;SDS011;2467;48.142;11.616;2022-12-13T02:40:02;12.20;;;9.68;;
4903;SDS011;2467;48.142;11.616;2022-12-13T02:40:40;11.95;;;9.70;;
4903;SDS011;2467;48.142;11.616;2022-12-13T02:41:18;13.48;;;10.93;;
4903;SDS011;2467;48.142;11.616;2022-12-13T02:41:57;12.82;;;10.50;;
4903;SDS011;2467;48.142;11.616;2022-12-13T02:42:33;14.60;;;11.40;;
4903;SDS011;2467;48.142;11.616;2022-12-13T02:43:08;11.98;;;10.77;;
4903;SDS011;2467;48.142;11.616;2022-12-13T02:43:46;13.98;;;10.25;;
4903;SDS011;2467;48.142;11.616;2022-12-13T02:44:21;12.88;;;10.50;;
4903;SDS011;2467;48.142;11.616;2022-12-13T02:44:58;12.25;;;11.02;;
4903;SDS011;2467;48.142;11.616;2022-12-13T02:45:39;13.90;;;10.85;;
4903;SDS011;2467;48.142;11.616;2022-12-13T02:46:16;18.27;;;11.60;;
4903;SDS011;2467;48.142;11.616;2022-12-13T02:46:53;42.78;;;27.30;;
4903;SDS011;2467;48.142;11.616;2022-12-13T02:47:28;31.08;;;20.73;;
4903;SDS011;2467;48.142;11.616;2022-12-13T02:48:02;26.38;;;20.40;;
4903;SDS011;2467;48.142;11.616;2022-12-13T02:48:37;23.77;;;17.55;;
4903;SDS011;2467;48.142;11.616;2022-12-13T02:49:12;21.13;;;16.75;;
4903;SDS011;2467;48.142;11.616;2022-12-13T02:49:47;17.95;;;14.73;;
4903;SDS011;2467;48.142;11.616;2022-12-13T02:50:22;16.70;;;14.18;;
4903;SDS011;2467;48.142;11.616;2022-12-13T02:50:56;14.07;;;11.80;;
4903;SDS011;2467;48.142;11.616;2022-12-13T02:51:31;14.80;;;11.65;;
4903;SDS011;2467;48.142;11.616;2022-12-13T02:52:04;16.08;;;11.48;;
4903;SDS011;2467;48.142;11.616;2022-12-13T02:52:38;14.13;;;11.23;;
4903;SDS011;2467;48.142;11.616;2022-12-13T02:53:13;13.63;;;11.73;;
4903;SDS011;2467;48.142;11.616;2022-12-13T02:53:46;12.48;;;10.77;;
4903;SDS011;2467;48.142;11.616;2022-12-13T02:54:19;14.43;;;12.10;;
4903;SDS011;2467;48.142;11.616;2022-12-13T02:54:52;14.57;;;11.18;;
4903;SDS011;2467;48.142;11.616;2022-12-13T02:55:24;13.80;;;10.88;;
4903;SDS011;2467;48.142;11.616;2022-12-13T02:55:58;12.73;;;11.07;;
4903;SDS011;2467;48.142;11.616;2022-12-13T02:56:30;14.50;;;11.93;;
4903;SDS011;2467;48.142;11.616;2022-12-13T02:57:02;14.38;;;10.98;;
4903;SDS011;2467;48.142;11.616;2022-12-13T02:57:37;14.43;;;11.77;;
4903;SDS011;2467;48.142;11.616;2022-12-13T02:58:11;15.63;;;12.10;;
4903;SDS011;2467;48.142;11.616;2022-12-13T02:58:44;16.75;;;10.45;;
4903;SDS011;2467;48.142;11.616;2022-12-13T02:59:20;15.48;;;11.32;;
4903;SDS011;2467;48.142;11.616;2022-12-13T02:59:55;15.73;;;11.88;;
4903;SDS011;2467;48.142;11.616;2022-12-13T03:00:29;11.55;;;10.05;;
4903;SDS011;2467;48.142;11.616;2022-12-13T03:01:18;12.02;;;10.70;;
4903;SDS011;2467;48.142;11.616;2022-12-13T03:02:12;9.85;;;8.85;;
4903;SDS011;2467;48.142;11.616;2022-12-13T03:03:06;11.77;;;10.52;;
4903;SDS011;2467;48.142;11.616;2022-12-13T03:03:50;15.10;;;11.80;;
4903;SDS011;2467;48.142;11.616;2022-12-13T03:04:34;16.20;;;11.73;;
4903;SDS011;2467;48.142;11.616;2022-12-13T03:05:35;14.85;;;10.60;;
4903;SDS011;2467;48.142;11.616;2022-12-13T03:06:37;13.68;;;10.60;;
4903;SDS011;2467;48.142;11.616;2022-12-13T03:07:16;10.85;;;9.75;;
4903;SDS011;2467;48.142;11.616;2022-12-13T03:07:57;11.88;;;10.55;;
4903;SDS011;2467;48.142;11.616;2022-12-13T03:08:44;13.18;;;10.65;;
4903;SDS011;2467;48.142;11.616;2022-12-13T03:09:30;12.63;;;10.57;;
4903;SDS011;2467;48.142;11.616;2022-12-13T03:10:13;14.02;;;9.88;;
4903;SDS011;2467;48.142;11.616;2022-12-13T03:10:56;13.32;;;10.45;;
4903;SDS011;2467;48.142;11.616;2022-12-13T03:11:36;12.63;;;10.30;;
4903;SDS011;2467;48.142;11.616;2022-12-13T03:12:39;12.88;;;11.35;;
4903;SDS011;2467;48.142;11.616;2022-12-13T03:13:38;12.88;;;10.13;;
4903;SDS011;2467;48.142;11.616;2022-12-13T03:14:18;13.90;;;10.48;;
4903;SDS011;2467;48.142;11.616;2022-12-13T03:14:54;14.10;;;11.30;;
4903;SDS011;2467;48.142;11.616;2022-12-13T03:15:32;15.05;;;11.40;;
4903;SDS011;2467;48.142;11.616;2022-12-13T03:16:15;14.55;;;11.90;;
4903;SDS011;2467;48.142;11.616;2022-12-13T03:16:56;11.85;;;10.68;;
4903;SDS011;2467;48.142;11.616;2022-12-13T03:17:33;14.65;;;11.68;;
4903;SDS011;2467;48.142;11.616;2022-12-13T03:18:11;15.50;;;12.05;;
4903;SDS011;2467;48.142;11.616;2022-12-13T03:18:46;12.95;;;10.43;;
4903;SDS011;2467;48.142;11.616;2022-12-13T03:19:20;13.00;;;11.48;;
4903;SDS011;2467;48.142;11.616;2022-12-13T03:19:53;14.32;;;11.32;;
4903;SDS011;2467;48.142;11.616;2022-12-13T03:20:26;13.93;;;11.82;;
4903;SDS011;2467;48.142;11.616;2022-12-13T03:20:59;13.77;;;11.23;;
4903;SDS011;2467;48.142;11.616;2022-12-13T03:21:36;14.32;;;10.75;;
4903;SDS011;2467;48.142;11.616;2022-12-13T03:22:17;11.65;;;10.50;;
4903;SDS011;2467;48.142;11.616;2022-12-13T03:22:50;13.57;;;11.32;;
4903;SDS011;2467;48.142;11.616;2022-12-13T03:23:22;14.10;;;11.80;;
4903;SDS011;2467;48.142;11.616;2022-12-13T03:23:54;15.15;;;11.93;;
4903;SDS011;2467;48.142;11.616;2022-12-13T03:24:27;13.30;;;11.52;;
4903;SDS011;2467;48.142;11.616;2022-12-13T03:24:59;14.63;;;12.68;;
4903;SDS011;2467;48.142;11.616;2022-12-13T03:25:31;12.25;;;10.95;;
4903;SDS011;2467;48.142;11.616;2022-12-13T03:26:04;14.98;;;10.80;;
4903;SDS011;2467;48.142;11.616;2022-12-13T03:26:39;13.30;;;11.40;;
4903;SDS011;2467;48.142;11.616;2022-12-13T03:27:11;16.30;;;11.75;;
4903;SDS011;2467;48.142;11.616;2022-12-13T03:27:44;12.82;;;10.30;;
4903;SDS011;2467;48.142;11.616;2022-12-13T03:28:16;14.05;;;10.68;;
4903;SDS011;2467;48.142;11.616;2022-12-13T03:28:48;14.82;;;11.65;;
4903;SDS011;2467;48.142;11.616;2022-12-13T03:29:21;11.05;;;9.85;;
4903;SDS011;2467;48.142;11.616;2022-12-13T03:29:55;16.67;;;12.70;;
4903;SDS011;2467;48.142;11.616;2022-12-13T03:30:27;12.88;;;10.02;;
4903;SDS011;2467;48.142;11.616;2022-12-13T03:31:00;15.20;;;10.80;;
4903;SDS011;2467;48.142;11.616;2022-12-13T03:31:33;12.15;;;10.95;;
4903;SDS011;2467;48.142;11.616;2022-12-13T03:32:06;12.60;;;11.20;;
4903;SDS011;2467;48.142;11.616;2022-12-13T03:32:38;12.57;;;10.73;;
4903;SDS011;2467;48.142;11.616;2022-12-13T03:33:10;15.82;;;11.43;;
4903;SDS011;2467;48.142;11.616;2022-12-13T03:33:43;14.98;;;12.50;;
4903;SDS011;2467;48.142;11.616;2022-12-13T03:34:15;14.98;;;11.40;;
4903;SDS011;2467;48.142;11.616;2022-12-13T03:34:53;12.30;;;11.00;;
4903;SDS011;2467;48.142;11.616;2022-12-13T03:35:31;11.68;;;10.38;;
4903;SDS011;2467;48.142;11.616;2022-12-13T03:36:14;12.68;;;11.02;;
4903;SDS011;2467;48.142;11.616;2022-12-13T03:36:49;15.30;;;11.32;;
4903;SDS011;2467;48.142;11.616;2022-12-13T03:37:20;13.93;;;11.55;;